Jack Holland — WDF3615 — position and weather

sailwx.info

Track history (hours):
 
Tides and Currents Weather Stations Pressure Air Temp Water Temp Dewpoint Dewpoint Depression Visibility Wind Speed Wind Dir Waves Ship Positions

Jack Holland

Owner: Norfolk Tug Company, Norfolk, VA. More information available from US FCC via Universal Licensing System and Coast Guard Vessel Documentation Center.

Last reported at 2016-Dec-08 01:06 UTC. Time now 2016-Dec-09 02:05 UTC.
Position N 36°56' W 076°20'.

Length 22 m; draft 2.5 m.

Type: Tug. MMSI: 367442020.

Date/timePositionNaut miles runAvg speedWind from/ knotsBaromVisibWave heightAir tempDewpointWater temp
2016-Dec-08 01:06N 36°56' W 076°20'4 8.0
2016-Dec-08 00:33N 36°52' W 076°19'6 5.5
2016-Dec-07 23:33N 36°46' W 076°18'0 0.3
2016-Dec-07 22:33N 36°47' W 076°18'5 4.6
2016-Dec-07 21:33N 36°51' W 076°18'1 1.4
2016-Dec-07 20:33N 36°52' W 076°20'3 3.4
2016-Dec-07 19:33N 36°50' W 076°16'0 0.0
2016-Dec-07 18:33N 36°50' W 076°16'0 0.0
2016-Dec-07 17:33N 36°50' W 076°16'0 0.0
2016-Dec-07 16:33N 36°50' W 076°16'0 0.0
2016-Dec-07 15:34N 36°50' W 076°16'0 0.0
2016-Dec-07 14:33N 36°50' W 076°16'4 4.3
2016-Dec-07 13:33N 36°53' W 076°20'0 0.0
2016-Dec-07 12:33N 36°53' W 076°20'0 0.0
2016-Dec-07 11:33N 36°53' W 076°20'0 0.0
2016-Dec-07 10:33N 36°53' W 076°20'0 0.0
2016-Dec-07 09:33N 36°53' W 076°20'0 0.0
2016-Dec-07 08:33N 36°53' W 076°20'0 0.0
2016-Dec-07 07:33N 36°53' W 076°20'0 0.0
2016-Dec-07 06:33N 36°53' W 076°20'0 0.0
2016-Dec-07 05:33N 36°53' W 076°20'0 0.0
2016-Dec-07 04:33N 36°53' W 076°20'2 1.6
2016-Dec-07 03:17N 36°55' W 076°20'1 0.9
2016-Dec-07 02:33N 36°54' W 076°20'0 0.0
2016-Dec-07 01:27N 36°54' W 076°20'0 0.0
2016-Dec-07 00:33N 36°54' W 076°20'0 0.0
2016-Dec-06 23:24N 36°54' W 076°20'0 0.0
2016-Dec-06 22:33N 36°54' W 076°20'0 0.0
2016-Dec-06 21:33N 36°54' W 076°20'1 0.6
2016-Dec-06 20:05N 36°55' W 076°20'1 0.2
2016-Dec-06 13:19N 36°56' W 076°20'3 3.8
2016-Dec-06 12:27N 36°53' W 076°20'4 4.8
2016-Dec-06 11:33N 36°50' W 076°16'0 0.0
2016-Dec-06 10:33N 36°50' W 076°16'0 0.0
2016-Dec-06 09:33N 36°50' W 076°16'0 0.0
2016-Dec-06 08:32N 36°50' W 076°16'0 0.0
2016-Dec-06 07:26N 36°50' W 076°16'0 0.0
2016-Dec-06 06:05N 36°50' W 076°16'0 0.0
2016-Dec-06 03:17N 36°50' W 076°16'0 0.0
2016-Dec-06 02:18N 36°50' W 076°16'0 0.0
2016-Dec-06 01:17N 36°50' W 076°16'0 0.0
2016-Dec-06 00:26N 36°50' W 076°16'0 0.1
2016-Dec-05 23:30N 36°50' W 076°16'4 0.4
2016-Dec-05 13:06N 36°53' W 076°20'0 0.0
2016-Dec-05 12:28N 36°53' W 076°20'4 4.7
2016-Dec-05 11:33N 36°50' W 076°16'0 0.0
2016-Dec-05 10:33N 36°50' W 076°16'0 0.0
2016-Dec-05 09:30N 36°50' W 076°16'0 0.0
2016-Dec-05 08:33N 36°50' W 076°16'0 0.0
2016-Dec-05 07:33N 36°50' W 076°16'0 0.0
2016-Dec-05 06:33N 36°50' W 076°16'0 0.0
2016-Dec-05 05:33N 36°50' W 076°16'0 0.0
2016-Dec-05 04:33N 36°50' W 076°16'0 0.0
2016-Dec-05 03:33N 36°50' W 076°16'0 0.0
2016-Dec-05 02:33N 36°50' W 076°16'0 0.0
2016-Dec-05 01:33N 36°50' W 076°16'0 0.0
2016-Dec-05 00:33N 36°50' W 076°16'0 0.0
2016-Dec-04 23:33N 36°50' W 076°16'0 0.0
2016-Dec-04 22:33N 36°50' W 076°16'0 0.0
2016-Dec-04 21:33N 36°50' W 076°16'0 0.0
2016-Dec-04 20:33N 36°50' W 076°16'0 0.0
2016-Dec-04 19:33N 36°50' W 076°16'0 0.0
2016-Dec-04 18:33N 36°50' W 076°16'0 0.0
2016-Dec-04 17:33N 36°50' W 076°16'0 0.0
2016-Dec-04 16:33N 36°50' W 076°16'0 0.0
2016-Dec-04 15:33N 36°50' W 076°16'0 0.0
2016-Dec-04 14:33N 36°50' W 076°16'0 0.0
2016-Dec-04 13:33N 36°50' W 076°16'0 0.0
2016-Dec-04 12:33N 36°50' W 076°16'0 0.0
2016-Dec-04 11:33N 36°50' W 076°16'0 0.0
2016-Dec-04 10:33N 36°50' W 076°16'0 0.0
2016-Dec-04 09:33N 36°50' W 076°16'0 0.0
2016-Dec-04 08:33N 36°50' W 076°16'0 0.0
2016-Dec-04 07:33N 36°50' W 076°16'0 0.0
2016-Dec-04 06:33N 36°50' W 076°16'0 0.0
2016-Dec-04 05:33N 36°50' W 076°16'0 0.0
2016-Dec-04 04:33N 36°50' W 076°16'0 0.0
2016-Dec-04 03:33N 36°50' W 076°16'0 0.0
2016-Dec-04 02:33N 36°50' W 076°16'0 0.0
2016-Dec-04 01:33N 36°50' W 076°16'0 0.0
2016-Dec-04 00:33N 36°50' W 076°16'0 0.0
2016-Dec-03 23:33N 36°50' W 076°16'0 0.0
2016-Dec-03 22:33N 36°50' W 076°16'0 0.0
2016-Dec-03 21:33N 36°50' W 076°16'0 0.0
2016-Dec-03 20:33N 36°50' W 076°16'0 0.0
2016-Dec-03 19:33N 36°50' W 076°16'0 0.0
2016-Dec-03 18:33N 36°50' W 076°16'0 0.3
2016-Dec-03 17:34N 36°50' W 076°16'0 0.2
2016-Dec-03 16:33N 36°50' W 076°16'0 0.1
2016-Dec-03 15:33N 36°50' W 076°16'0 0.0
2016-Dec-03 14:33N 36°50' W 076°16'0 0.0
2016-Dec-03 13:33N 36°50' W 076°16'0 0.0
2016-Dec-03 12:33N 36°50' W 076°16'0 0.0
2016-Dec-03 11:29N 36°50' W 076°16'0 0.0
2016-Dec-03 10:19N 36°50' W 076°16'1 0.9
2016-Dec-03 09:33N 36°50' W 076°17'4 4.5
2016-Dec-03 08:33N 36°46' W 076°18'1 0.7
2016-Dec-03 07:33N 36°47' W 076°18'5 4.8
2016-Dec-03 06:33N 36°51' W 076°19'5 0.1
2016-Dec-01 23:33N 36°56' W 076°20'6 6.3
2016-Dec-01 22:33N 36°50' W 076°16'0 0.2
2016-Dec-01 21:33N 36°50' W 076°16'0 0.0
2016-Dec-01 20:33N 36°50' W 076°16'0 0.0
2016-Dec-01 19:33N 36°50' W 076°16'0 0.0
2016-Dec-01 18:33N 36°50' W 076°16'0 0.0
2016-Dec-01 17:33N 36°50' W 076°16'0 0.0
2016-Dec-01 16:33N 36°50' W 076°16'0 0.0
2016-Dec-01 15:33N 36°50' W 076°16'0 0.0
2016-Dec-01 14:33N 36°50' W 076°16'0 0.0
2016-Dec-01 13:34N 36°50' W 076°16'0 0.1
2016-Dec-01 12:34N 36°50' W 076°16'3 2.7
2016-Dec-01 11:33N 36°52' W 076°19'4 0.1
2016-Nov-30 00:30N 36°56' W 076°20'6 6.3
2016-Nov-29 23:33N 36°50' W 076°17'0 0.3
2016-Nov-29 22:33N 36°50' W 076°16'0 0.0
2016-Nov-29 20:33N 36°50' W 076°16'0 0.0
2016-Nov-29 19:32N 36°50' W 076°16'2 1.6
2016-Nov-29 18:34N 36°49' W 076°17'2 1.8
2016-Nov-29 17:33N 36°50' W 076°16'0 0.2
2016-Nov-29 16:30N 36°50' W 076°16'0 0.0
2016-Nov-29 15:33N 36°50' W 076°16'0 0.0
2016-Nov-29 14:23N 36°50' W 076°16'0 0.0
2016-Nov-29 13:27N 36°50' W 076°16'0 0.0
2016-Nov-29 12:23N 36°50' W 076°16'0 0.0
2016-Nov-29 10:14N 36°50' W 076°16'0 0.0
2016-Nov-29 09:33N 36°50' W 076°16'0 0.1
2016-Nov-29 08:34N 36°50' W 076°16'4 4.0
2016-Nov-29 07:33N 36°53' W 076°20'  
Track history (hours):
 
Tides and Currents Weather Stations Pressure Air Temp Water Temp Dewpoint Dewpoint Depression Visibility Wind Speed Wind Dir Waves Ship Positions

Jack Holland

Owner: Norfolk Tug Company, Norfolk, VA. More information available from US FCC via Universal Licensing System and Coast Guard Vessel Documentation Center.

Last reported at 2016-Dec-08 01:06 UTC. Time now 2016-Dec-09 02:05 UTC.
Position N 36°56' W 076°20'.

Length 22 m; draft 2.5 m.

Type: Tug. MMSI: 367442020.

Date/timePositionNaut miles runAvg speedWind from/ knotsBaromVisibWave heightAir tempDewpointWater temp
2016-Dec-08 01:06N 36°56' W 076°20'4 8.0
2016-Dec-08 00:33N 36°52' W 076°19'6 5.5
2016-Dec-07 23:33N 36°46' W 076°18'0 0.3
2016-Dec-07 22:33N 36°47' W 076°18'5 4.6
2016-Dec-07 21:33N 36°51' W 076°18'1 1.4
2016-Dec-07 20:33N 36°52' W 076°20'3 3.4
2016-Dec-07 19:33N 36°50' W 076°16'0 0.0
2016-Dec-07 18:33N 36°50' W 076°16'0 0.0
2016-Dec-07 17:33N 36°50' W 076°16'0 0.0
2016-Dec-07 16:33N 36°50' W 076°16'0 0.0
2016-Dec-07 15:34N 36°50' W 076°16'0 0.0
2016-Dec-07 14:33N 36°50' W 076°16'4 4.3
2016-Dec-07 13:33N 36°53' W 076°20'0 0.0
2016-Dec-07 12:33N 36°53' W 076°20'0 0.0
2016-Dec-07 11:33N 36°53' W 076°20'0 0.0
2016-Dec-07 10:33N 36°53' W 076°20'0 0.0
2016-Dec-07 09:33N 36°53' W 076°20'0 0.0
2016-Dec-07 08:33N 36°53' W 076°20'0 0.0
2016-Dec-07 07:33N 36°53' W 076°20'0 0.0
2016-Dec-07 06:33N 36°53' W 076°20'0 0.0
2016-Dec-07 05:33N 36°53' W 076°20'0 0.0
2016-Dec-07 04:33N 36°53' W 076°20'2 1.6
2016-Dec-07 03:17N 36°55' W 076°20'1 0.9
2016-Dec-07 02:33N 36°54' W 076°20'0 0.0
2016-Dec-07 01:27N 36°54' W 076°20'0 0.0
2016-Dec-07 00:33N 36°54' W 076°20'0 0.0
2016-Dec-06 23:24N 36°54' W 076°20'0 0.0
2016-Dec-06 22:33N 36°54' W 076°20'0 0.0
2016-Dec-06 21:33N 36°54' W 076°20'1 0.6
2016-Dec-06 20:05N 36°55' W 076°20'1 0.2
2016-Dec-06 13:19N 36°56' W 076°20'3 3.8
2016-Dec-06 12:27N 36°53' W 076°20'4 4.8
2016-Dec-06 11:33N 36°50' W 076°16'0 0.0
2016-Dec-06 10:33N 36°50' W 076°16'0 0.0
2016-Dec-06 09:33N 36°50' W 076°16'0 0.0
2016-Dec-06 08:32N 36°50' W 076°16'0 0.0
2016-Dec-06 07:26N 36°50' W 076°16'0 0.0
2016-Dec-06 06:05N 36°50' W 076°16'0 0.0
2016-Dec-06 03:17N 36°50' W 076°16'0 0.0
2016-Dec-06 02:18N 36°50' W 076°16'0 0.0
2016-Dec-06 01:17N 36°50' W 076°16'0 0.0
2016-Dec-06 00:26N 36°50' W 076°16'0 0.1
2016-Dec-05 23:30N 36°50' W 076°16'4 0.4
2016-Dec-05 13:06N 36°53' W 076°20'0 0.0
2016-Dec-05 12:28N 36°53' W 076°20'4 4.7
2016-Dec-05 11:33N 36°50' W 076°16'0 0.0
2016-Dec-05 10:33N 36°50' W 076°16'0 0.0
2016-Dec-05 09:30N 36°50' W 076°16'0 0.0
2016-Dec-05 08:33N 36°50' W 076°16'0 0.0
2016-Dec-05 07:33N 36°50' W 076°16'0 0.0
2016-Dec-05 06:33N 36°50' W 076°16'0 0.0
2016-Dec-05 05:33N 36°50' W 076°16'0 0.0
2016-Dec-05 04:33N 36°50' W 076°16'0 0.0
2016-Dec-05 03:33N 36°50' W 076°16'0 0.0
2016-Dec-05 02:33N 36°50' W 076°16'0 0.0
2016-Dec-05 01:33N 36°50' W 076°16'0 0.0
2016-Dec-05 00:33N 36°50' W 076°16'0 0.0
2016-Dec-04 23:33N 36°50' W 076°16'0 0.0
2016-Dec-04 22:33N 36°50' W 076°16'0 0.0
2016-Dec-04 21:33N 36°50' W 076°16'0 0.0
2016-Dec-04 20:33N 36°50' W 076°16'0 0.0
2016-Dec-04 19:33N 36°50' W 076°16'0 0.0
2016-Dec-04 18:33N 36°50' W 076°16'0 0.0
2016-Dec-04 17:33N 36°50' W 076°16'0 0.0
2016-Dec-04 16:33N 36°50' W 076°16'0 0.0
2016-Dec-04 15:33N 36°50' W 076°16'0 0.0
2016-Dec-04 14:33N 36°50' W 076°16'0 0.0
2016-Dec-04 13:33N 36°50' W 076°16'0 0.0
2016-Dec-04 12:33N 36°50' W 076°16'0 0.0
2016-Dec-04 11:33N 36°50' W 076°16'0 0.0
2016-Dec-04 10:33N 36°50' W 076°16'0 0.0
2016-Dec-04 09:33N 36°50' W 076°16'0 0.0
2016-Dec-04 08:33N 36°50' W 076°16'0 0.0
2016-Dec-04 07:33N 36°50' W 076°16'0 0.0
2016-Dec-04 06:33N 36°50' W 076°16'0 0.0
2016-Dec-04 05:33N 36°50' W 076°16'0 0.0
2016-Dec-04 04:33N 36°50' W 076°16'0 0.0
2016-Dec-04 03:33N 36°50' W 076°16'0 0.0
2016-Dec-04 02:33N 36°50' W 076°16'0 0.0
2016-Dec-04 01:33N 36°50' W 076°16'0 0.0
2016-Dec-04 00:33N 36°50' W 076°16'0 0.0
2016-Dec-03 23:33N 36°50' W 076°16'0 0.0
2016-Dec-03 22:33N 36°50' W 076°16'0 0.0
2016-Dec-03 21:33N 36°50' W 076°16'0 0.0
2016-Dec-03 20:33N 36°50' W 076°16'0 0.0
2016-Dec-03 19:33N 36°50' W 076°16'0 0.0
2016-Dec-03 18:33N 36°50' W 076°16'0 0.3
2016-Dec-03 17:34N 36°50' W 076°16'0 0.2
2016-Dec-03 16:33N 36°50' W 076°16'0 0.1
2016-Dec-03 15:33N 36°50' W 076°16'0 0.0
2016-Dec-03 14:33N 36°50' W 076°16'0 0.0
2016-Dec-03 13:33N 36°50' W 076°16'0 0.0
2016-Dec-03 12:33N 36°50' W 076°16'0 0.0
2016-Dec-03 11:29N 36°50' W 076°16'0 0.0
2016-Dec-03 10:19N 36°50' W 076°16'1 0.9
2016-Dec-03 09:33N 36°50' W 076°17'4 4.5
2016-Dec-03 08:33N 36°46' W 076°18'1 0.7
2016-Dec-03 07:33N 36°47' W 076°18'5 4.8
2016-Dec-03 06:33N 36°51' W 076°19'5 0.1
2016-Dec-01 23:33N 36°56' W 076°20'6 6.3
2016-Dec-01 22:33N 36°50' W 076°16'0 0.2
2016-Dec-01 21:33N 36°50' W 076°16'0 0.0
2016-Dec-01 20:33N 36°50' W 076°16'0 0.0
2016-Dec-01 19:33N 36°50' W 076°16'0 0.0
2016-Dec-01 18:33N 36°50' W 076°16'0 0.0
2016-Dec-01 17:33N 36°50' W 076°16'0 0.0
2016-Dec-01 16:33N 36°50' W 076°16'0 0.0
2016-Dec-01 15:33N 36°50' W 076°16'0 0.0
2016-Dec-01 14:33N 36°50' W 076°16'0 0.0
2016-Dec-01 13:34N 36°50' W 076°16'0 0.1
2016-Dec-01 12:34N 36°50' W 076°16'3 2.7
2016-Dec-01 11:33N 36°52' W 076°19'4 0.1
2016-Nov-30 00:30N 36°56' W 076°20'6 6.3
2016-Nov-29 23:33N 36°50' W 076°17'0 0.3
2016-Nov-29 22:33N 36°50' W 076°16'0 0.0
2016-Nov-29 20:33N 36°50' W 076°16'0 0.0
2016-Nov-29 19:32N 36°50' W 076°16'2 1.6
2016-Nov-29 18:34N 36°49' W 076°17'2 1.8
2016-Nov-29 17:33N 36°50' W 076°16'0 0.2
2016-Nov-29 16:30N 36°50' W 076°16'0 0.0
2016-Nov-29 15:33N 36°50' W 076°16'0 0.0
2016-Nov-29 14:23N 36°50' W 076°16'0 0.0
2016-Nov-29 13:27N 36°50' W 076°16'0 0.0
2016-Nov-29 12:23N 36°50' W 076°16'0 0.0
2016-Nov-29 10:14N 36°50' W 076°16'0 0.0
2016-Nov-29 09:33N 36°50' W 076°16'0 0.1
2016-Nov-29 08:34N 36°50' W 076°16'4 4.0
2016-Nov-29 07:33N 36°53' W 076°20'  

Dump ship's entire track history